sensor_id;sensor_type;location;lat;lon;timestamp;P1;durP1;ratioP1;P2;durP2;ratioP2
68377;SDS011;55322;48.146;11.516;2023-08-06T00:01:24;9.63;;;5.07;;
68377;SDS011;55322;48.146;11.516;2023-08-06T00:03:50;8.75;;;5.10;;
68377;SDS011;55322;48.146;11.516;2023-08-06T00:06:16;9.90;;;4.50;;
68377;SDS011;55322;48.146;11.516;2023-08-06T00:08:41;9.75;;;5.10;;
68377;SDS011;55322;48.146;11.516;2023-08-06T00:11:06;8.17;;;4.30;;
68377;SDS011;55322;48.146;11.516;2023-08-06T00:13:32;8.53;;;4.30;;
68377;SDS011;55322;48.146;11.516;2023-08-06T00:16:10;8.87;;;4.37;;
68377;SDS011;55322;48.146;11.516;2023-08-06T00:18:36;8.70;;;4.43;;
68377;SDS011;55322;48.146;11.516;2023-08-06T00:21:02;8.10;;;4.30;;
68377;SDS011;55322;48.146;11.516;2023-08-06T00:23:27;8.65;;;4.18;;
68377;SDS011;55322;48.146;11.516;2023-08-06T00:25:53;9.43;;;4.10;;
68377;SDS011;55322;48.146;11.516;2023-08-06T00:28:18;7.97;;;4.03;;
68377;SDS011;55322;48.146;11.516;2023-08-06T00:30:43;8.07;;;4.00;;
68377;SDS011;55322;48.146;11.516;2023-08-06T00:33:09;10.63;;;4.50;;
68377;SDS011;55322;48.146;11.516;2023-08-06T00:35:34;8.18;;;3.92;;
68377;SDS011;55322;48.146;11.516;2023-08-06T00:38:00;7.67;;;3.73;;
68377;SDS011;55322;48.146;11.516;2023-08-06T00:40:25;7.93;;;4.20;;
68377;SDS011;55322;48.146;11.516;2023-08-06T00:42:53;8.32;;;3.83;;
68377;SDS011;55322;48.146;11.516;2023-08-06T00:45:19;8.80;;;4.00;;
68377;SDS011;55322;48.146;11.516;2023-08-06T00:47:44;9.07;;;4.17;;
68377;SDS011;55322;48.146;11.516;2023-08-06T00:50:10;8.23;;;4.00;;
68377;SDS011;55322;48.146;11.516;2023-08-06T00:52:36;7.93;;;4.10;;
68377;SDS011;55322;48.146;11.516;2023-08-06T00:55:02;9.90;;;4.23;;
68377;SDS011;55322;48.146;11.516;2023-08-06T00:57:28;8.30;;;4.38;;
68377;SDS011;55322;48.146;11.516;2023-08-06T00:59:53;11.03;;;4.43;;
68377;SDS011;55322;48.146;11.516;2023-08-06T01:02:19;7.68;;;4.15;;
68377;SDS011;55322;48.146;11.516;2023-08-06T01:04:44;9.33;;;4.27;;
68377;SDS011;55322;48.146;11.516;2023-08-06T01:07:33;8.50;;;3.43;;
68377;SDS011;55322;48.146;11.516;2023-08-06T01:10:31;7.30;;;4.03;;
68377;SDS011;55322;48.146;11.516;2023-08-06T01:13:24;8.77;;;3.80;;
68377;SDS011;55322;48.146;11.516;2023-08-06T01:16:09;8.38;;;3.83;;
68377;SDS011;55322;48.146;11.516;2023-08-06T01:18:35;7.30;;;3.93;;
68377;SDS011;55322;48.146;11.516;2023-08-06T01:21:02;8.35;;;4.55;;
68377;SDS011;55322;48.146;11.516;2023-08-06T01:23:28;9.37;;;4.23;;
68377;SDS011;55322;48.146;11.516;2023-08-06T01:28:48;9.73;;;4.73;;
68377;SDS011;55322;48.146;11.516;2023-08-06T01:31:22;8.65;;;4.45;;
68377;SDS011;55322;48.146;11.516;2023-08-06T01:33:49;9.60;;;4.85;;
68377;SDS011;55322;48.146;11.516;2023-08-06T01:36:16;9.32;;;4.85;;
68377;SDS011;55322;48.146;11.516;2023-08-06T01:38:43;8.32;;;4.75;;
68377;SDS011;55322;48.146;11.516;2023-08-06T01:41:09;9.53;;;5.20;;
68377;SDS011;55322;48.146;11.516;2023-08-06T01:43:35;9.73;;;5.10;;
68377;SDS011;55322;48.146;11.516;2023-08-06T01:46:00;10.02;;;4.97;;
68377;SDS011;55322;48.146;11.516;2023-08-06T01:48:25;9.77;;;5.10;;
68377;SDS011;55322;48.146;11.516;2023-08-06T01:50:51;9.97;;;5.10;;
68377;SDS011;55322;48.146;11.516;2023-08-06T01:53:16;9.97;;;4.80;;
68377;SDS011;55322;48.146;11.516;2023-08-06T01:55:41;9.83;;;4.40;;
68377;SDS011;55322;48.146;11.516;2023-08-06T01:58:06;8.30;;;4.37;;
68377;SDS011;55322;48.146;11.516;2023-08-06T02:00:32;8.33;;;4.23;;
68377;SDS011;55322;48.146;11.516;2023-08-06T02:02:57;7.27;;;3.90;;
68377;SDS011;55322;48.146;11.516;2023-08-06T02:05:22;7.23;;;3.90;;
68377;SDS011;55322;48.146;11.516;2023-08-06T02:07:48;9.02;;;3.80;;
68377;SDS011;55322;48.146;11.516;2023-08-06T02:10:13;7.87;;;4.20;;
68377;SDS011;55322;48.146;11.516;2023-08-06T02:12:38;9.27;;;4.60;;
68377;SDS011;55322;48.146;11.516;2023-08-06T02:15:04;10.70;;;3.87;;
68377;SDS011;55322;48.146;11.516;2023-08-06T02:17:30;7.97;;;3.65;;
68377;SDS011;55322;48.146;11.516;2023-08-06T02:19:55;7.43;;;3.23;;
68377;SDS011;55322;48.146;11.516;2023-08-06T02:22:21;7.43;;;3.37;;
68377;SDS011;55322;48.146;11.516;2023-08-06T02:24:46;7.10;;;3.40;;
68377;SDS011;55322;48.146;11.516;2023-08-06T02:27:13;8.30;;;3.47;;
68377;SDS011;55322;48.146;11.516;2023-08-06T02:29:39;6.70;;;2.80;;
68377;SDS011;55322;48.146;11.516;2023-08-06T02:32:05;8.98;;;3.38;;
68377;SDS011;55322;48.146;11.516;2023-08-06T02:34:31;6.93;;;3.20;;
68377;SDS011;55322;48.146;11.516;2023-08-06T02:36:56;7.57;;;3.50;;
68377;SDS011;55322;48.146;11.516;2023-08-06T02:39:22;7.47;;;3.50;;
68377;SDS011;55322;48.146;11.516;2023-08-06T02:41:47;6.40;;;2.80;;
68377;SDS011;55322;48.146;11.516;2023-08-06T02:44:13;8.10;;;3.00;;
68377;SDS011;55322;48.146;11.516;2023-08-06T02:46:38;8.93;;;3.20;;
68377;SDS011;55322;48.146;11.516;2023-08-06T02:49:03;5.90;;;2.73;;
68377;SDS011;55322;48.146;11.516;2023-08-06T02:51:29;6.10;;;2.60;;
68377;SDS011;55322;48.146;11.516;2023-08-06T02:53:54;6.73;;;2.80;;
68377;SDS011;55322;48.146;11.516;2023-08-06T02:56:19;7.20;;;2.80;;
68377;SDS011;55322;48.146;11.516;2023-08-06T02:58:45;6.30;;;2.70;;
68377;SDS011;55322;48.146;11.516;2023-08-06T03:01:10;6.00;;;2.83;;
68377;SDS011;55322;48.146;11.516;2023-08-06T03:03:36;5.90;;;2.60;;
68377;SDS011;55322;48.146;11.516;2023-08-06T03:06:01;6.67;;;2.40;;
68377;SDS011;55322;48.146;11.516;2023-08-06T03:08:26;8.37;;;2.60;;
68377;SDS011;55322;48.146;11.516;2023-08-06T03:10:52;6.20;;;2.73;;
68377;SDS011;55322;48.146;11.516;2023-08-06T03:13:17;5.70;;;2.60;;
68377;SDS011;55322;48.146;11.516;2023-08-06T03:15:43;7.20;;;2.70;;
68377;SDS011;55322;48.146;11.516;2023-08-06T03:18:16;6.13;;;2.40;;
68377;SDS011;55322;48.146;11.516;2023-08-06T03:20:41;5.97;;;2.60;;
68377;SDS011;55322;48.146;11.516;2023-08-06T03:23:06;5.90;;;2.60;;
68377;SDS011;55322;48.146;11.516;2023-08-06T03:25:34;6.77;;;2.60;;
68377;SDS011;55322;48.146;11.516;2023-08-06T03:28:00;7.78;;;2.80;;
68377;SDS011;55322;48.146;11.516;2023-08-06T03:30:26;5.80;;;2.60;;
68377;SDS011;55322;48.146;11.516;2023-08-06T03:32:51;6.50;;;2.90;;
68377;SDS011;55322;48.146;11.516;2023-08-06T03:35:16;9.30;;;3.20;;
68377;SDS011;55322;48.146;11.516;2023-08-06T03:37:41;6.90;;;2.90;;
68377;SDS011;55322;48.146;11.516;2023-08-06T03:40:07;8.23;;;3.03;;
68377;SDS011;55322;48.146;11.516;2023-08-06T03:42:33;7.17;;;3.10;;
68377;SDS011;55322;48.146;11.516;2023-08-06T03:44:58;6.37;;;2.80;;
68377;SDS011;55322;48.146;11.516;2023-08-06T03:47:23;5.57;;;2.53;;
68377;SDS011;55322;48.146;11.516;2023-08-06T03:49:49;7.00;;;2.83;;
68377;SDS011;55322;48.146;11.516;2023-08-06T03:52:14;6.73;;;3.23;;
68377;SDS011;55322;48.146;11.516;2023-08-06T03:54:40;7.33;;;3.00;;
68377;SDS011;55322;48.146;11.516;2023-08-06T03:57:05;7.00;;;2.92;;
68377;SDS011;55322;48.146;11.516;2023-08-06T03:59:31;6.70;;;2.63;;
68377;SDS011;55322;48.146;11.516;2023-08-06T04:01:56;7.13;;;3.10;;
68377;SDS011;55322;48.146;11.516;2023-08-06T04:04:21;5.90;;;2.30;;
68377;SDS011;55322;48.146;11.516;2023-08-06T04:06:47;7.07;;;3.07;;
68377;SDS011;55322;48.146;11.516;2023-08-06T04:09:12;6.43;;;2.37;;
68377;SDS011;55322;48.146;11.516;2023-08-06T04:11:38;8.10;;;2.28;;
68377;SDS011;55322;48.146;11.516;2023-08-06T04:14:03;7.30;;;2.73;;
68377;SDS011;55322;48.146;11.516;2023-08-06T04:16:28;5.67;;;2.30;;
68377;SDS011;55322;48.146;11.516;2023-08-06T04:18:54;6.47;;;2.60;;
68377;SDS011;55322;48.146;11.516;2023-08-06T04:21:20;6.95;;;2.53;;
68377;SDS011;55322;48.146;11.516;2023-08-06T04:23:45;8.10;;;2.03;;
68377;SDS011;55322;48.146;11.516;2023-08-06T04:26:11;6.30;;;2.47;;
68377;SDS011;55322;48.146;11.516;2023-08-06T04:28:36;6.30;;;2.13;;
68377;SDS011;55322;48.146;11.516;2023-08-06T04:31:01;7.57;;;2.50;;
68377;SDS011;55322;48.146;11.516;2023-08-06T04:33:27;6.63;;;2.30;;
68377;SDS011;55322;48.146;11.516;2023-08-06T04:35:55;6.33;;;2.17;;
68377;SDS011;55322;48.146;11.516;2023-08-06T04:38:22;5.97;;;2.00;;
68377;SDS011;55322;48.146;11.516;2023-08-06T04:40:51;5.73;;;2.23;;
68377;SDS011;55322;48.146;11.516;2023-08-06T04:43:16;7.13;;;2.40;;
68377;SDS011;55322;48.146;11.516;2023-08-06T04:45:46;8.30;;;2.67;;
68377;SDS011;55322;48.146;11.516;2023-08-06T04:48:12;6.05;;;2.00;;
68377;SDS011;55322;48.146;11.516;2023-08-06T04:50:38;6.38;;;2.30;;
68377;SDS011;55322;48.146;11.516;2023-08-06T04:53:03;7.60;;;2.13;;
68377;SDS011;55322;48.146;11.516;2023-08-06T04:55:28;7.00;;;1.93;;
68377;SDS011;55322;48.146;11.516;2023-08-06T04:57:53;5.63;;;2.13;;
68377;SDS011;55322;48.146;11.516;2023-08-06T05:00:19;6.07;;;2.30;;
68377;SDS011;55322;48.146;11.516;2023-08-06T05:02:44;9.37;;;2.40;;
68377;SDS011;55322;48.146;11.516;2023-08-06T05:05:09;5.63;;;1.90;;
68377;SDS011;55322;48.146;11.516;2023-08-06T05:07:35;8.20;;;2.23;;
68377;SDS011;55322;48.146;11.516;2023-08-06T05:10:00;6.57;;;2.17;;
68377;SDS011;55322;48.146;11.516;2023-08-06T05:12:25;5.77;;;2.40;;
68377;SDS011;55322;48.146;11.516;2023-08-06T05:14:51;6.27;;;2.10;;
68377;SDS011;55322;48.146;11.516;2023-08-06T05:17:16;5.53;;;1.97;;
68377;SDS011;55322;48.146;11.516;2023-08-06T05:19:41;5.67;;;2.10;;
68377;SDS011;55322;48.146;11.516;2023-08-06T05:22:07;7.43;;;2.00;;
68377;SDS011;55322;48.146;11.516;2023-08-06T05:24:32;7.63;;;2.20;;
68377;SDS011;55322;48.146;11.516;2023-08-06T05:26:57;6.70;;;2.43;;
68377;SDS011;55322;48.146;11.516;2023-08-06T05:29:23;6.87;;;2.40;;
68377;SDS011;55322;48.146;11.516;2023-08-06T05:31:48;6.03;;;2.20;;
68377;SDS011;55322;48.146;11.516;2023-08-06T05:34:13;6.70;;;1.90;;
68377;SDS011;55322;48.146;11.516;2023-08-06T05:36:38;6.03;;;2.00;;
68377;SDS011;55322;48.146;11.516;2023-08-06T05:39:04;5.70;;;1.90;;
68377;SDS011;55322;48.146;11.516;2023-08-06T05:41:29;5.57;;;2.00;;
68377;SDS011;55322;48.146;11.516;2023-08-06T05:43:54;5.83;;;2.00;;
68377;SDS011;55322;48.146;11.516;2023-08-06T05:46:20;5.53;;;2.10;;
68377;SDS011;55322;48.146;11.516;2023-08-06T05:48:45;5.03;;;1.70;;
68377;SDS011;55322;48.146;11.516;2023-08-06T05:51:10;5.47;;;2.00;;
68377;SDS011;55322;48.146;11.516;2023-08-06T05:53:38;5.90;;;2.00;;
68377;SDS011;55322;48.146;11.516;2023-08-06T05:56:03;5.30;;;1.70;;
68377;SDS011;55322;48.146;11.516;2023-08-06T05:58:29;4.90;;;1.70;;
68377;SDS011;55322;48.146;11.516;2023-08-06T06:00:55;7.47;;;1.80;;
68377;SDS011;55322;48.146;11.516;2023-08-06T06:03:21;6.20;;;1.85;;
68377;SDS011;55322;48.146;11.516;2023-08-06T06:05:46;5.27;;;1.70;;
68377;SDS011;55322;48.146;11.516;2023-08-06T06:08:11;5.20;;;1.90;;
68377;SDS011;55322;48.146;11.516;2023-08-06T06:10:37;5.90;;;1.60;;
68377;SDS011;55322;48.146;11.516;2023-08-06T06:13:02;5.57;;;1.70;;
68377;SDS011;55322;48.146;11.516;2023-08-06T06:15:27;4.97;;;1.50;;
68377;SDS011;55322;48.146;11.516;2023-08-06T06:17:53;5.53;;;1.43;;
68377;SDS011;55322;48.146;11.516;2023-08-06T06:20:18;4.80;;;1.27;;
68377;SDS011;55322;48.146;11.516;2023-08-06T06:22:43;6.00;;;1.40;;
68377;SDS011;55322;48.146;11.516;2023-08-06T06:25:09;7.00;;;1.60;;
68377;SDS011;55322;48.146;11.516;2023-08-06T06:27:35;5.97;;;1.40;;
68377;SDS011;55322;48.146;11.516;2023-08-06T06:30:00;4.70;;;1.23;;
68377;SDS011;55322;48.146;11.516;2023-08-06T06:32:26;4.70;;;1.20;;
68377;SDS011;55322;48.146;11.516;2023-08-06T06:34:51;5.60;;;1.40;;
68377;SDS011;55322;48.146;11.516;2023-08-06T06:37:16;4.38;;;1.13;;
68377;SDS011;55322;48.146;11.516;2023-08-06T06:39:42;4.77;;;1.37;;
68377;SDS011;55322;48.146;11.516;2023-08-06T06:42:07;4.47;;;1.10;;
68377;SDS011;55322;48.146;11.516;2023-08-06T06:44:32;4.30;;;1.20;;
68377;SDS011;55322;48.146;11.516;2023-08-06T06:46:58;5.47;;;1.20;;
68377;SDS011;55322;48.146;11.516;2023-08-06T06:49:23;4.67;;;1.07;;
68377;SDS011;55322;48.146;11.516;2023-08-06T06:51:48;4.50;;;1.10;;
68377;SDS011;55322;48.146;11.516;2023-08-06T06:54:14;5.45;;;1.20;;
68377;SDS011;55322;48.146;11.516;2023-08-06T06:56:39;4.53;;;1.10;;
68377;SDS011;55322;48.146;11.516;2023-08-06T06:59:05;5.90;;;1.00;;
68377;SDS011;55322;48.146;11.516;2023-08-06T07:01:30;4.40;;;1.20;;
68377;SDS011;55322;48.146;11.516;2023-08-06T07:03:55;6.27;;;1.10;;
68377;SDS011;55322;48.146;11.516;2023-08-06T07:06:22;4.22;;;1.13;;
68377;SDS011;55322;48.146;11.516;2023-08-06T07:08:47;5.60;;;1.00;;
68377;SDS011;55322;48.146;11.516;2023-08-06T07:11:12;3.35;;;0.70;;
68377;SDS011;55322;48.146;11.516;2023-08-06T07:13:38;3.63;;;0.70;;
68377;SDS011;55322;48.146;11.516;2023-08-06T07:16:03;3.80;;;1.00;;
68377;SDS011;55322;48.146;11.516;2023-08-06T07:18:29;3.97;;;0.60;;
68377;SDS011;55322;48.146;11.516;2023-08-06T07:20:54;3.67;;;0.60;;
68377;SDS011;55322;48.146;11.516;2023-08-06T07:23:20;4.40;;;0.70;;
68377;SDS011;55322;48.146;11.516;2023-08-06T07:25:46;4.82;;;0.60;;
68377;SDS011;55322;48.146;11.516;2023-08-06T07:28:13;3.95;;;0.80;;
68377;SDS011;55322;48.146;11.516;2023-08-06T07:30:39;3.70;;;0.70;;
68377;SDS011;55322;48.146;11.516;2023-08-06T07:33:05;4.27;;;0.60;;
68377;SDS011;55322;48.146;11.516;2023-08-06T07:35:30;4.28;;;0.70;;
68377;SDS011;55322;48.146;11.516;2023-08-06T07:37:55;3.37;;;0.60;;
68377;SDS011;55322;48.146;11.516;2023-08-06T07:40:21;4.00;;;0.53;;
68377;SDS011;55322;48.146;11.516;2023-08-06T07:42:46;4.30;;;0.60;;
68377;SDS011;55322;48.146;11.516;2023-08-06T07:45:11;4.43;;;0.80;;
68377;SDS011;55322;48.146;11.516;2023-08-06T07:47:37;3.80;;;0.63;;
68377;SDS011;55322;48.146;11.516;2023-08-06T07:50:02;4.43;;;0.67;;
68377;SDS011;55322;48.146;11.516;2023-08-06T07:52:27;5.03;;;0.70;;
68377;SDS011;55322;48.146;11.516;2023-08-06T07:54:53;6.63;;;0.60;;
68377;SDS011;55322;48.146;11.516;2023-08-06T07:57:18;3.73;;;0.67;;
68377;SDS011;55322;48.146;11.516;2023-08-06T07:59:43;4.80;;;1.00;;
68377;SDS011;55322;48.146;11.516;2023-08-06T08:02:09;4.57;;;0.80;;
68377;SDS011;55322;48.146;11.516;2023-08-06T08:04:34;3.63;;;0.60;;
68377;SDS011;55322;48.146;11.516;2023-08-06T08:06:59;5.37;;;0.60;;
68377;SDS011;55322;48.146;11.516;2023-08-06T08:09:25;3.43;;;0.70;;
68377;SDS011;55322;48.146;11.516;2023-08-06T08:11:50;3.40;;;0.60;;
68377;SDS011;55322;48.146;11.516;2023-08-06T08:14:15;3.13;;;0.50;;
68377;SDS011;55322;48.146;11.516;2023-08-06T08:16:41;3.53;;;0.60;;
68377;SDS011;55322;48.146;11.516;2023-08-06T08:19:06;4.47;;;0.60;;
68377;SDS011;55322;48.146;11.516;2023-08-06T08:21:32;4.23;;;0.60;;
68377;SDS011;55322;48.146;11.516;2023-08-06T08:23:59;3.33;;;0.57;;
68377;SDS011;55322;48.146;11.516;2023-08-06T08:26:25;2.75;;;0.60;;
68377;SDS011;55322;48.146;11.516;2023-08-06T08:28:52;4.05;;;0.52;;
68377;SDS011;55322;48.146;11.516;2023-08-06T08:31:18;2.57;;;0.40;;
68377;SDS011;55322;48.146;11.516;2023-08-06T08:33:43;3.23;;;0.40;;
68377;SDS011;55322;48.146;11.516;2023-08-06T08:36:08;4.67;;;0.50;;
68377;SDS011;55322;48.146;11.516;2023-08-06T08:38:34;3.13;;;0.50;;
68377;SDS011;55322;48.146;11.516;2023-08-06T08:41:00;3.90;;;0.50;;
68377;SDS011;55322;48.146;11.516;2023-08-06T08:43:26;5.03;;;0.50;;
68377;SDS011;55322;48.146;11.516;2023-08-06T08:45:52;3.70;;;0.50;;
68377;SDS011;55322;48.146;11.516;2023-08-06T08:48:23;3.28;;;0.50;;
68377;SDS011;55322;48.146;11.516;2023-08-06T08:50:49;3.60;;;0.40;;
68377;SDS011;55322;48.146;11.516;2023-08-06T08:53:15;3.30;;;0.40;;
68377;SDS011;55322;48.146;11.516;2023-08-06T08:55:42;3.50;;;0.40;;
68377;SDS011;55322;48.146;11.516;2023-08-06T08:58:09;3.03;;;0.40;;
68377;SDS011;55322;48.146;11.516;2023-08-06T09:00:35;3.72;;;0.52;;
68377;SDS011;55322;48.146;11.516;2023-08-06T09:03:01;3.30;;;0.50;;
68377;SDS011;55322;48.146;11.516;2023-08-06T09:05:28;2.97;;;0.40;;
68377;SDS011;55322;48.146;11.516;2023-08-06T09:07:55;2.70;;;0.43;;
68377;SDS011;55322;48.146;11.516;2023-08-06T09:10:29;3.03;;;0.40;;
68377;SDS011;55322;48.146;11.516;2023-08-06T09:12:55;4.40;;;0.30;;
68377;SDS011;55322;48.146;11.516;2023-08-06T09:15:24;3.20;;;0.40;;
68377;SDS011;55322;48.146;11.516;2023-08-06T09:17:51;3.80;;;0.50;;
68377;SDS011;55322;48.146;11.516;2023-08-06T09:20:17;4.65;;;0.40;;
68377;SDS011;55322;48.146;11.516;2023-08-06T09:22:43;2.33;;;0.40;;
68377;SDS011;55322;48.146;11.516;2023-08-06T09:25:09;3.88;;;0.50;;
68377;SDS011;55322;48.146;11.516;2023-08-06T09:27:35;2.10;;;0.30;;
68377;SDS011;55322;48.146;11.516;2023-08-06T09:30:02;4.97;;;0.40;;
68377;SDS011;55322;48.146;11.516;2023-08-06T09:32:36;2.03;;;0.30;;
68377;SDS011;55322;48.146;11.516;2023-08-06T09:35:10;3.47;;;0.40;;
68377;SDS011;55322;48.146;11.516;2023-08-06T09:37:40;3.40;;;0.40;;
68377;SDS011;55322;48.146;11.516;2023-08-06T09:40:21;3.43;;;0.50;;
68377;SDS011;55322;48.146;11.516;2023-08-06T09:42:50;3.13;;;0.35;;
68377;SDS011;55322;48.146;11.516;2023-08-06T09:45:16;3.20;;;0.43;;
68377;SDS011;55322;48.146;11.516;2023-08-06T09:47:41;3.57;;;0.57;;
68377;SDS011;55322;48.146;11.516;2023-08-06T09:50:14;2.63;;;0.50;;
68377;SDS011;55322;48.146;11.516;2023-08-06T09:52:43;5.18;;;0.73;;
68377;SDS011;55322;48.146;11.516;2023-08-06T09:55:10;5.15;;;0.70;;
68377;SDS011;55322;48.146;11.516;2023-08-06T09:57:37;2.67;;;0.40;;
68377;SDS011;55322;48.146;11.516;2023-08-06T10:00:03;2.33;;;0.40;;
68377;SDS011;55322;48.146;11.516;2023-08-06T10:02:29;2.58;;;0.40;;
68377;SDS011;55322;48.146;11.516;2023-08-06T10:04:56;2.45;;;0.40;;
68377;SDS011;55322;48.146;11.516;2023-08-06T10:07:22;2.13;;;0.30;;
68377;SDS011;55322;48.146;11.516;2023-08-06T10:09:49;3.13;;;0.40;;
68377;SDS011;55322;48.146;11.516;2023-08-06T10:12:14;1.83;;;0.30;;
68377;SDS011;55322;48.146;11.516;2023-08-06T10:14:43;2.90;;;0.30;;
68377;SDS011;55322;48.146;11.516;2023-08-06T10:17:09;2.03;;;0.35;;
68377;SDS011;55322;48.146;11.516;2023-08-06T10:19:35;1.50;;;0.30;;
68377;SDS011;55322;48.146;11.516;2023-08-06T10:22:17;3.40;;;0.40;;
68377;SDS011;55322;48.146;11.516;2023-08-06T10:24:50;2.03;;;0.32;;
68377;SDS011;55322;48.146;11.516;2023-08-06T10:32:49;2.08;;;0.30;;
68377;SDS011;55322;48.146;11.516;2023-08-06T10:35:35;3.27;;;0.40;;
68377;SDS011;55322;48.146;11.516;2023-08-06T10:38:15;3.83;;;0.73;;
68377;SDS011;55322;48.146;11.516;2023-08-06T10:40:50;2.20;;;0.40;;
68377;SDS011;55322;48.146;11.516;2023-08-06T10:43:27;1.92;;;0.30;;
68377;SDS011;55322;48.146;11.516;2023-08-06T10:45:57;3.20;;;0.40;;
68377;SDS011;55322;48.146;11.516;2023-08-06T10:48:39;3.10;;;0.33;;
68377;SDS011;55322;48.146;11.516;2023-08-06T10:51:07;2.42;;;0.40;;
68377;SDS011;55322;48.146;11.516;2023-08-06T10:53:33;2.45;;;0.30;;
68377;SDS011;55322;48.146;11.516;2023-08-06T10:55:59;2.53;;;0.40;;
68377;SDS011;55322;48.146;11.516;2023-08-06T10:58:25;3.03;;;0.30;;
68377;SDS011;55322;48.146;11.516;2023-08-06T11:00:50;2.78;;;0.32;;
68377;SDS011;55322;48.146;11.516;2023-08-06T11:03:16;2.50;;;0.40;;
68377;SDS011;55322;48.146;11.516;2023-08-06T11:05:48;1.90;;;0.30;;
68377;SDS011;55322;48.146;11.516;2023-08-06T11:08:22;2.45;;;0.30;;
68377;SDS011;55322;48.146;11.516;2023-08-06T11:10:49;1.90;;;0.30;;
68377;SDS011;55322;48.146;11.516;2023-08-06T11:13:18;2.37;;;0.20;;
68377;SDS011;55322;48.146;11.516;2023-08-06T11:15:44;1.65;;;0.30;;
68377;SDS011;55322;48.146;11.516;2023-08-06T11:18:10;1.80;;;0.30;;
68377;SDS011;55322;48.146;11.516;2023-08-06T11:20:36;2.30;;;0.30;;
68377;SDS011;55322;48.146;11.516;2023-08-06T11:23:01;1.98;;;0.30;;
68377;SDS011;55322;48.146;11.516;2023-08-06T11:25:27;4.00;;;0.40;;
68377;SDS011;55322;48.146;11.516;2023-08-06T11:27:54;1.60;;;0.20;;
68377;SDS011;55322;48.146;11.516;2023-08-06T11:30:19;5.00;;;0.40;;
68377;SDS011;55322;48.146;11.516;2023-08-06T11:32:45;2.10;;;0.33;;
68377;SDS011;55322;48.146;11.516;2023-08-06T11:35:12;1.95;;;0.30;;
68377;SDS011;55322;48.146;11.516;2023-08-06T11:37:38;1.67;;;0.30;;
68377;SDS011;55322;48.146;11.516;2023-08-06T11:40:08;1.67;;;0.30;;
68377;SDS011;55322;48.146;11.516;2023-08-06T11:42:36;2.35;;;0.30;;
68377;SDS011;55322;48.146;11.516;2023-08-06T11:45:02;3.10;;;0.30;;
68377;SDS011;55322;48.146;11.516;2023-08-06T11:47:29;2.40;;;0.33;;
68377;SDS011;55322;48.146;11.516;2023-08-06T11:49:54;1.90;;;0.30;;
68377;SDS011;55322;48.146;11.516;2023-08-06T11:52:20;1.87;;;0.30;;
68377;SDS011;55322;48.146;11.516;2023-08-06T11:54:49;1.73;;;0.30;;
68377;SDS011;55322;48.146;11.516;2023-08-06T11:57:24;1.70;;;0.30;;
68377;SDS011;55322;48.146;11.516;2023-08-06T11:59:49;2.13;;;0.30;;
68377;SDS011;55322;48.146;11.516;2023-08-06T12:02:15;4.70;;;0.33;;
68377;SDS011;55322;48.146;11.516;2023-08-06T12:04:59;1.57;;;0.20;;
68377;SDS011;55322;48.146;11.516;2023-08-06T12:07:26;2.13;;;0.40;;
68377;SDS011;55322;48.146;11.516;2023-08-06T12:09:53;1.85;;;0.30;;
68377;SDS011;55322;48.146;11.516;2023-08-06T12:12:18;1.80;;;0.30;;
68377;SDS011;55322;48.146;11.516;2023-08-06T12:14:43;1.70;;;0.30;;
68377;SDS011;55322;48.146;11.516;2023-08-06T12:17:08;2.00;;;0.40;;
68377;SDS011;55322;48.146;11.516;2023-08-06T12:19:34;2.03;;;0.30;;
68377;SDS011;55322;48.146;11.516;2023-08-06T12:21:59;2.17;;;0.30;;
68377;SDS011;55322;48.146;11.516;2023-08-06T12:24:25;2.78;;;0.40;;
68377;SDS011;55322;48.146;11.516;2023-08-06T12:26:51;1.83;;;0.30;;
68377;SDS011;55322;48.146;11.516;2023-08-06T12:29:16;1.97;;;0.30;;
68377;SDS011;55322;48.146;11.516;2023-08-06T12:31:41;1.40;;;0.30;;
68377;SDS011;55322;48.146;11.516;2023-08-06T12:34:06;3.70;;;0.30;;
68377;SDS011;55322;48.146;11.516;2023-08-06T12:36:32;2.10;;;0.30;;
68377;SDS011;55322;48.146;11.516;2023-08-06T12:38:57;2.13;;;0.40;;
68377;SDS011;55322;48.146;11.516;2023-08-06T12:41:22;1.50;;;0.23;;
68377;SDS011;55322;48.146;11.516;2023-08-06T12:43:48;1.60;;;0.30;;
68377;SDS011;55322;48.146;11.516;2023-08-06T12:46:13;2.00;;;0.30;;
68377;SDS011;55322;48.146;11.516;2023-08-06T12:48:38;1.93;;;0.30;;
68377;SDS011;55322;48.146;11.516;2023-08-06T12:51:04;1.57;;;0.20;;
68377;SDS011;55322;48.146;11.516;2023-08-06T12:53:29;3.33;;;0.50;;
68377;SDS011;55322;48.146;11.516;2023-08-06T12:55:54;2.58;;;0.38;;
68377;SDS011;55322;48.146;11.516;2023-08-06T12:58:19;1.63;;;0.30;;
68377;SDS011;55322;48.146;11.516;2023-08-06T13:00:45;1.50;;;0.30;;
68377;SDS011;55322;48.146;11.516;2023-08-06T13:03:10;1.80;;;0.30;;
68377;SDS011;55322;48.146;11.516;2023-08-06T13:05:35;1.60;;;0.30;;
68377;SDS011;55322;48.146;11.516;2023-08-06T13:08:02;4.07;;;0.30;;
68377;SDS011;55322;48.146;11.516;2023-08-06T13:10:27;2.00;;;0.40;;
68377;SDS011;55322;48.146;11.516;2023-08-06T13:12:54;2.70;;;0.35;;
68377;SDS011;55322;48.146;11.516;2023-08-06T13:15:19;2.20;;;0.30;;
68377;SDS011;55322;48.146;11.516;2023-08-06T13:17:46;2.05;;;0.30;;
68377;SDS011;55322;48.146;11.516;2023-08-06T13:20:12;2.90;;;0.40;;
68377;SDS011;55322;48.146;11.516;2023-08-06T13:22:37;2.23;;;0.30;;
68377;SDS011;55322;48.146;11.516;2023-08-06T13:25:03;1.70;;;0.30;;
68377;SDS011;55322;48.146;11.516;2023-08-06T13:27:28;1.17;;;0.20;;
68377;SDS011;55322;48.146;11.516;2023-08-06T13:29:53;2.00;;;0.40;;
68377;SDS011;55322;48.146;11.516;2023-08-06T13:32:19;2.27;;;0.30;;
68377;SDS011;55322;48.146;11.516;2023-08-06T13:34:44;1.80;;;0.30;;
68377;SDS011;55322;48.146;11.516;2023-08-06T13:37:09;2.87;;;0.33;;
68377;SDS011;55322;48.146;11.516;2023-08-06T13:39:35;1.70;;;0.30;;
68377;SDS011;55322;48.146;11.516;2023-08-06T13:42:01;1.65;;;0.30;;
68377;SDS011;55322;48.146;11.516;2023-08-06T13:44:26;1.83;;;0.30;;
68377;SDS011;55322;48.146;11.516;2023-08-06T13:46:53;2.22;;;0.30;;
68377;SDS011;55322;48.146;11.516;2023-08-06T13:49:19;3.63;;;0.40;;
68377;SDS011;55322;48.146;11.516;2023-08-06T13:51:44;1.83;;;0.30;;
68377;SDS011;55322;48.146;11.516;2023-08-06T13:54:09;2.37;;;0.40;;
68377;SDS011;55322;48.146;11.516;2023-08-06T13:56:35;1.80;;;0.30;;
68377;SDS011;55322;48.146;11.516;2023-08-06T13:59:01;2.13;;;0.38;;
68377;SDS011;55322;48.146;11.516;2023-08-06T14:01:26;1.80;;;0.30;;
68377;SDS011;55322;48.146;11.516;2023-08-06T14:03:52;2.07;;;0.30;;
68377;SDS011;55322;48.146;11.516;2023-08-06T14:06:18;1.88;;;0.30;;
68377;SDS011;55322;48.146;11.516;2023-08-06T14:08:43;1.90;;;0.30;;
68377;SDS011;55322;48.146;11.516;2023-08-06T14:11:09;1.90;;;0.37;;
68377;SDS011;55322;48.146;11.516;2023-08-06T14:13:35;1.83;;;0.30;;
68377;SDS011;55322;48.146;11.516;2023-08-06T14:16:00;1.63;;;0.30;;
68377;SDS011;55322;48.146;11.516;2023-08-06T14:18:26;1.80;;;0.30;;
68377;SDS011;55322;48.146;11.516;2023-08-06T14:20:52;2.40;;;0.30;;
68377;SDS011;55322;48.146;11.516;2023-08-06T14:23:18;2.67;;;0.30;;
68377;SDS011;55322;48.146;11.516;2023-08-06T14:25:43;2.73;;;0.40;;
68377;SDS011;55322;48.146;11.516;2023-08-06T14:28:08;2.57;;;0.40;;
68377;SDS011;55322;48.146;11.516;2023-08-06T14:30:34;1.80;;;0.30;;
68377;SDS011;55322;48.146;11.516;2023-08-06T14:33:00;2.87;;;0.40;;
68377;SDS011;55322;48.146;11.516;2023-08-06T14:35:26;4.07;;;0.40;;
68377;SDS011;55322;48.146;11.516;2023-08-06T14:37:51;1.97;;;0.30;;